AZU9363 SBEG-SBRF
Flight info
| Callsign | AZU9363 |
|---|---|
| Flight time | 3h 37m |
| Altitude | 33000 |
| Route | SIGEP UP527 OROVO/N0463F350 UP527 KIMOK |
| Aircraft | E195/M-SDE3GILORVW/S |
Departure
| Time | 2026-04-27 01:55 |
|---|---|
| Airport | Eduardo Gomes International Airport (SBEG) |
Arrival
| Time | 2026-04-27 05:32 |
|---|---|
| Airport | Recife/Guararapes - Gilberto Freyre International Airport (SBRF) |
| Time | Latitude | Longitude | Altitude | Speed | Heading |
|---|---|---|---|---|---|
| 2026-04-27 01:39 | -3.03274 | -60.04581 | 267 ft | 0 kts | 357° |
| 2026-04-27 01:46 | -3.03286 | -60.04580 | 267 ft | 2 kts | 357° |
| 2026-04-27 01:46 | -3.03303 | -60.04580 | 267 ft | 2 kts | 358° |
| 2026-04-27 01:47 | -3.03319 | -60.04579 | 267 ft | 2 kts | 355° |
| 2026-04-27 01:47 | -3.03336 | -60.04576 | 267 ft | 2 kts | 327° |
| 2026-04-27 01:47 | -3.03347 | -60.04564 | 267 ft | 2 kts | 292° |
| 2026-04-27 01:47 | -3.03351 | -60.04548 | 267 ft | 2 kts | 274° |
| 2026-04-27 01:48 | -3.03352 | -60.04540 | 267 ft | 1 kts | 268° |
| 2026-04-27 01:48 | -3.03352 | -60.04538 | 267 ft | 0 kts | 267° |
| 2026-04-27 01:48 | -3.03352 | -60.04540 | 267 ft | 1 kts | 267° |
| 2026-04-27 01:48 | -3.03354 | -60.04556 | 267 ft | 4 kts | 265° |
| 2026-04-27 01:49 | -3.03354 | -60.04601 | 267 ft | 9 kts | 270° |
| 2026-04-27 01:49 | -3.03353 | -60.04681 | 267 ft | 14 kts | 270° |
| 2026-04-27 01:49 | -3.03375 | -60.04784 | 267 ft | 16 kts | 238° |
| 2026-04-27 01:49 | -3.03453 | -60.04863 | 267 ft | 16 kts | 219° |
| 2026-04-27 01:50 | -3.03538 | -60.04937 | 267 ft | 16 kts | 230° |
| 2026-04-27 01:50 | -3.03589 | -60.05035 | 267 ft | 16 kts | 252° |
| 2026-04-27 01:50 | -3.03618 | -60.05141 | 267 ft | 16 kts | 255° |
| 2026-04-27 01:50 | -3.03643 | -60.05236 | 267 ft | 16 kts | 255° |
| 2026-04-27 01:52 | -3.03646 | -60.05244 | 267 ft | 16 kts | 255° |
| 2026-04-27 01:52 | -3.03676 | -60.05371 | 267 ft | 19 kts | 260° |
| 2026-04-27 01:52 | -3.03691 | -60.05503 | 267 ft | 19 kts | 268° |
| 2026-04-27 01:53 | -3.03691 | -60.05634 | 267 ft | 19 kts | 270° |
| 2026-04-27 01:53 | -3.03690 | -60.05763 | 267 ft | 18 kts | 270° |
| 2026-04-27 01:53 | -3.03690 | -60.05892 | 267 ft | 18 kts | 270° |
| 2026-04-27 01:53 | -3.03689 | -60.06017 | 267 ft | 18 kts | 270° |
| 2026-04-27 01:54 | -3.03710 | -60.06139 | 267 ft | 18 kts | 240° |
| 2026-04-27 01:54 | -3.03813 | -60.06174 | 268 ft | 16 kts | 169° |
| 2026-04-27 01:54 | -3.03858 | -60.06077 | 268 ft | 22 kts | 90° |
| 2026-04-27 01:54 | -3.03858 | -60.05729 | 267 ft | 77 kts | 90° |
| 2026-04-27 01:55 | -3.03860 | -60.05019 | 267 ft | 126 kts | 90° |
| 2026-04-27 01:55 | -3.03863 | -60.03996 | 278 ft | 165 kts | 89° |
| 2026-04-27 01:55 | -3.03879 | -60.02807 | 707 ft | 171 kts | 90° |
| 2026-04-27 01:55 | -3.03903 | -60.01620 | 1300 ft | 187 kts | 90° |
| 2026-04-27 01:56 | -3.04648 | -59.98566 | 2265 ft | 253 kts | 108° |
| 2026-04-27 01:56 | -3.05211 | -59.96823 | 3130 ft | 269 kts | 105° |
| 2026-04-27 01:56 | -3.05708 | -59.95006 | 4340 ft | 273 kts | 102° |
| 2026-04-27 01:57 | -3.06152 | -59.93167 | 5411 ft | 272 kts | 102° |
| 2026-04-27 01:57 | -3.06597 | -59.91321 | 6361 ft | 273 kts | 102° |
| 2026-04-27 01:57 | -3.07020 | -59.89587 | 7124 ft | 276 kts | 102° |
| 2026-04-27 01:57 | -3.07477 | -59.87710 | 7920 ft | 280 kts | 102° |
| 2026-04-27 01:58 | -3.07944 | -59.85809 | 8712 ft | 284 kts | 102° |
| 2026-04-27 01:58 | -3.08419 | -59.83876 | 9531 ft | 287 kts | 102° |
| 2026-04-27 01:58 | -3.08900 | -59.81923 | 10339 ft | 291 kts | 102° |
| 2026-04-27 01:58 | -3.09386 | -59.79944 | 11095 ft | 295 kts | 102° |
| 2026-04-27 01:59 | -3.09879 | -59.77940 | 11831 ft | 299 kts | 102° |
| 2026-04-27 01:59 | -3.10379 | -59.75910 | 12551 ft | 303 kts | 102° |
| 2026-04-27 01:59 | -3.10885 | -59.73853 | 13281 ft | 306 kts | 102° |
| 2026-04-27 01:59 | -3.11398 | -59.71769 | 13979 ft | 310 kts | 102° |
| 2026-04-27 02:00 | -3.11916 | -59.69667 | 14675 ft | 312 kts | 102° |
| 2026-04-27 02:00 | -3.12432 | -59.67574 | 15381 ft | 315 kts | 102° |
| 2026-04-27 02:00 | -3.12958 | -59.65438 | 16075 ft | 318 kts | 102° |
| 2026-04-27 02:00 | -3.13498 | -59.63250 | 16755 ft | 321 kts | 102° |
| 2026-04-27 02:01 | -3.14035 | -59.61069 | 17409 ft | 324 kts | 102° |
| 2026-04-27 02:01 | -3.14569 | -59.58900 | 18033 ft | 327 kts | 102° |
| 2026-04-27 02:01 | -3.15117 | -59.56680 | 18588 ft | 330 kts | 102° |
| 2026-04-27 02:01 | -3.15669 | -59.54445 | 19122 ft | 332 kts | 102° |
| 2026-04-27 02:02 | -3.16224 | -59.52196 | 19637 ft | 334 kts | 102° |
| 2026-04-27 02:02 | -3.16783 | -59.49930 | 20139 ft | 337 kts | 102° |
| 2026-04-27 02:02 | -3.17347 | -59.47648 | 20636 ft | 339 kts | 102° |
| 2026-04-27 02:02 | -3.17916 | -59.45345 | 21125 ft | 342 kts | 102° |
| 2026-04-27 02:03 | -3.18489 | -59.43027 | 21612 ft | 344 kts | 102° |
| 2026-04-27 02:03 | -3.19066 | -59.40693 | 22088 ft | 347 kts | 102° |
| 2026-04-27 02:03 | -3.19647 | -59.38342 | 22552 ft | 349 kts | 102° |
| 2026-04-27 02:03 | -3.20232 | -59.35974 | 23023 ft | 352 kts | 102° |
| 2026-04-27 02:04 | -3.20821 | -59.33588 | 23481 ft | 354 kts | 102° |
| 2026-04-27 02:04 | -3.21416 | -59.31187 | 23870 ft | 356 kts | 103° |
| 2026-04-27 02:04 | -3.22010 | -59.28774 | 24250 ft | 359 kts | 101° |
| 2026-04-27 02:04 | -3.22523 | -59.26283 | 24254 ft | 373 kts | 99° |
| 2026-04-27 02:05 | -3.23011 | -59.23691 | 24288 ft | 385 kts | 99° |
| 2026-04-27 02:05 | -3.23526 | -59.21038 | 24577 ft | 389 kts | 100° |
| 2026-04-27 02:05 | -3.24050 | -59.18381 | 24991 ft | 389 kts | 100° |
| 2026-04-27 02:05 | -3.24580 | -59.15721 | 25385 ft | 390 kts | 100° |
| 2026-04-27 02:06 | -3.25114 | -59.13054 | 25731 ft | 392 kts | 100° |
| 2026-04-27 02:06 | -3.25649 | -59.10374 | 26081 ft | 393 kts | 100° |
| 2026-04-27 02:06 | -3.26188 | -59.07686 | 26424 ft | 395 kts | 100° |
| 2026-04-27 02:06 | -3.26727 | -59.04982 | 26767 ft | 397 kts | 100° |
| 2026-04-27 02:07 | -3.27269 | -59.02272 | 27106 ft | 398 kts | 100° |
| 2026-04-27 02:07 | -3.27815 | -58.99545 | 27430 ft | 400 kts | 100° |
| 2026-04-27 02:07 | -3.28362 | -58.96809 | 27754 ft | 402 kts | 100° |
| 2026-04-27 02:07 | -3.28911 | -58.94057 | 28065 ft | 404 kts | 100° |
| 2026-04-27 02:08 | -3.29463 | -58.91293 | 28364 ft | 406 kts | 100° |
| 2026-04-27 02:08 | -3.30019 | -58.88515 | 28655 ft | 408 kts | 100° |
| 2026-04-27 02:08 | -3.30576 | -58.85722 | 28938 ft | 410 kts | 100° |
| 2026-04-27 02:08 | -3.31134 | -58.82927 | 29217 ft | 411 kts | 100° |
| 2026-04-27 02:09 | -3.31696 | -58.80113 | 29485 ft | 413 kts | 100° |
| 2026-04-27 02:09 | -3.32251 | -58.77332 | 29732 ft | 415 kts | 100° |
| 2026-04-27 02:09 | -3.32817 | -58.74495 | 29975 ft | 416 kts | 100° |
| 2026-04-27 02:09 | -3.33384 | -58.71650 | 30193 ft | 417 kts | 100° |
| 2026-04-27 02:10 | -3.33954 | -58.68795 | 30391 ft | 419 kts | 100° |
| 2026-04-27 02:10 | -3.34525 | -58.65935 | 30595 ft | 420 kts | 100° |
| 2026-04-27 02:10 | -3.35098 | -58.63061 | 30802 ft | 421 kts | 100° |
| 2026-04-27 02:10 | -3.35672 | -58.60181 | 30988 ft | 423 kts | 100° |
| 2026-04-27 02:11 | -3.36247 | -58.57293 | 31179 ft | 424 kts | 100° |
| 2026-04-27 02:11 | -3.36825 | -58.54395 | 31362 ft | 425 kts | 100° |
| 2026-04-27 02:11 | -3.37405 | -58.51489 | 31558 ft | 427 kts | 100° |
| 2026-04-27 02:11 | -3.37985 | -58.48575 | 31739 ft | 428 kts | 100° |
| 2026-04-27 02:12 | -3.38567 | -58.45650 | 31933 ft | 429 kts | 100° |
| 2026-04-27 02:12 | -3.39152 | -58.42715 | 32116 ft | 430 kts | 100° |
| 2026-04-27 02:12 | -3.39539 | -58.40772 | 32261 ft | 430 kts | 100° |
| 2026-04-27 02:12 | -3.40320 | -58.36848 | 32622 ft | 429 kts | 100° |
| 2026-04-27 02:13 | -3.40706 | -58.34910 | 32792 ft | 429 kts | 100° |
| 2026-04-27 02:13 | -3.41286 | -58.31996 | 33117 ft | 426 kts | 101° |
| 2026-04-27 02:13 | -3.42461 | -58.26089 | 33014 ft | 440 kts | 101° |
| 2026-04-27 02:14 | -3.43671 | -58.19997 | 32950 ft | 450 kts | 101° |
| 2026-04-27 02:14 | -3.44897 | -58.13829 | 32952 ft | 452 kts | 101° |
| 2026-04-27 02:15 | -3.46123 | -58.07654 | 32947 ft | 453 kts | 101° |
| 2026-04-27 02:15 | -3.47350 | -58.01478 | 32953 ft | 453 kts | 101° |
| 2026-04-27 02:16 | -3.48579 | -57.95291 | 32950 ft | 453 kts | 101° |
| 2026-04-27 02:16 | -3.49807 | -57.89104 | 32951 ft | 453 kts | 101° |
| 2026-04-27 02:17 | -3.51035 | -57.82913 | 32956 ft | 454 kts | 101° |
| 2026-04-27 02:17 | -3.52263 | -57.76723 | 32957 ft | 454 kts | 101° |
| 2026-04-27 02:18 | -3.53490 | -57.70533 | 32956 ft | 453 kts | 101° |
| 2026-04-27 02:18 | -3.54717 | -57.64338 | 32951 ft | 454 kts | 101° |
| 2026-04-27 02:19 | -3.55944 | -57.58145 | 32956 ft | 453 kts | 101° |
| 2026-04-27 02:19 | -3.57161 | -57.51999 | 32958 ft | 453 kts | 101° |
| 2026-04-27 02:20 | -3.58386 | -57.45810 | 32957 ft | 453 kts | 101° |
| 2026-04-27 02:20 | -3.59610 | -57.39623 | 32954 ft | 453 kts | 101° |
| 2026-04-27 02:21 | -3.60835 | -57.33433 | 32957 ft | 453 kts | 101° |
| 2026-04-27 02:21 | -3.62058 | -57.27247 | 32955 ft | 453 kts | 101° |
| 2026-04-27 02:22 | -3.63281 | -57.21054 | 32954 ft | 453 kts | 101° |
| 2026-04-27 02:22 | -3.64516 | -57.14806 | 32967 ft | 462 kts | 101° |
| 2026-04-27 02:23 | -3.65770 | -57.08457 | 32953 ft | 466 kts | 101° |
| 2026-04-27 02:23 | -3.67026 | -57.02096 | 32954 ft | 466 kts | 101° |
| 2026-04-27 02:24 | -3.68283 | -56.95728 | 32949 ft | 466 kts | 101° |
| 2026-04-27 02:24 | -3.69538 | -56.89367 | 32953 ft | 466 kts | 101° |
| 2026-04-27 02:25 | -3.70794 | -56.83000 | 32956 ft | 466 kts | 101° |
| 2026-04-27 02:25 | -3.72049 | -56.76635 | 32951 ft | 466 kts | 101° |
| 2026-04-27 02:26 | -3.73303 | -56.70271 | 32953 ft | 466 kts | 101° |
| 2026-04-27 02:26 | -3.74555 | -56.63913 | 32958 ft | 466 kts | 101° |
| 2026-04-27 02:27 | -3.75807 | -56.57555 | 32959 ft | 465 kts | 101° |
| 2026-04-27 02:27 | -3.77059 | -56.51195 | 32957 ft | 466 kts | 101° |
| 2026-04-27 02:28 | -3.78310 | -56.44832 | 32956 ft | 466 kts | 101° |
| 2026-04-27 02:28 | -3.79563 | -56.38462 | 32958 ft | 466 kts | 101° |
| 2026-04-27 02:29 | -3.80814 | -56.32098 | 32957 ft | 466 kts | 101° |
| 2026-04-27 02:29 | -3.82066 | -56.25728 | 32960 ft | 466 kts | 101° |
| 2026-04-27 02:30 | -3.83317 | -56.19360 | 32957 ft | 466 kts | 101° |
| 2026-04-27 02:30 | -3.84560 | -56.13030 | 32959 ft | 466 kts | 101° |
| 2026-04-27 02:31 | -3.85818 | -56.06618 | 32963 ft | 466 kts | 101° |
| 2026-04-27 02:31 | -3.87060 | -56.00286 | 32962 ft | 466 kts | 101° |
| 2026-04-27 02:32 | -3.88309 | -55.93919 | 32962 ft | 466 kts | 101° |
| 2026-04-27 02:32 | -3.89558 | -55.87549 | 32960 ft | 466 kts | 101° |
| 2026-04-27 02:33 | -3.90806 | -55.81180 | 32961 ft | 466 kts | 101° |
| 2026-04-27 02:33 | -3.92052 | -55.74815 | 32958 ft | 466 kts | 101° |
| 2026-04-27 02:34 | -3.93299 | -55.68450 | 32959 ft | 466 kts | 101° |
| 2026-04-27 02:34 | -3.94546 | -55.62078 | 32958 ft | 466 kts | 101° |
| 2026-04-27 02:35 | -3.95793 | -55.55700 | 32954 ft | 466 kts | 101° |
| 2026-04-27 02:35 | -3.97040 | -55.49325 | 32957 ft | 467 kts | 101° |
| 2026-04-27 02:36 | -3.98287 | -55.42948 | 32955 ft | 467 kts | 101° |
| 2026-04-27 02:36 | -3.99533 | -55.36569 | 32961 ft | 466 kts | 101° |
| 2026-04-27 02:37 | -4.00778 | -55.30198 | 32962 ft | 466 kts | 101° |
| 2026-04-27 02:37 | -4.02020 | -55.23831 | 32961 ft | 466 kts | 101° |
| 2026-04-27 02:38 | -4.03262 | -55.17462 | 32961 ft | 466 kts | 101° |
| 2026-04-27 02:38 | -4.04503 | -55.11104 | 32960 ft | 465 kts | 101° |
| 2026-04-27 02:39 | -4.05743 | -55.04746 | 32968 ft | 465 kts | 101° |
| 2026-04-27 02:39 | -4.06982 | -54.98386 | 32966 ft | 465 kts | 100° |
| 2026-04-27 02:40 | -4.08219 | -54.92032 | 32965 ft | 465 kts | 100° |
| 2026-04-27 02:40 | -4.09456 | -54.85677 | 32970 ft | 465 kts | 100° |
| 2026-04-27 02:41 | -4.10684 | -54.79370 | 32964 ft | 465 kts | 100° |
| 2026-04-27 02:41 | -4.11929 | -54.72973 | 32966 ft | 465 kts | 100° |
| 2026-04-27 02:42 | -4.13156 | -54.66663 | 32966 ft | 464 kts | 100° |
| 2026-04-27 02:42 | -4.14390 | -54.60312 | 32968 ft | 464 kts | 100° |
| 2026-04-27 02:43 | -4.15623 | -54.53967 | 32966 ft | 464 kts | 100° |
| 2026-04-27 02:43 | -4.16854 | -54.47623 | 32965 ft | 464 kts | 100° |
| 2026-04-27 02:44 | -4.18088 | -54.41272 | 32971 ft | 464 kts | 100° |
| 2026-04-27 02:44 | -4.19320 | -54.34928 | 32969 ft | 464 kts | 100° |
| 2026-04-27 02:45 | -4.20551 | -54.28580 | 32972 ft | 464 kts | 100° |
| 2026-04-27 02:45 | -4.21781 | -54.22232 | 32974 ft | 464 kts | 100° |
| 2026-04-27 02:46 | -4.23012 | -54.15881 | 32976 ft | 465 kts | 100° |
| 2026-04-27 02:46 | -4.24242 | -54.09526 | 32975 ft | 465 kts | 100° |
| 2026-04-27 02:47 | -4.25473 | -54.03169 | 32968 ft | 465 kts | 100° |
| 2026-04-27 02:47 | -4.26703 | -53.96815 | 32968 ft | 465 kts | 100° |
| 2026-04-27 02:48 | -4.27926 | -53.90493 | 32970 ft | 465 kts | 100° |
| 2026-04-27 02:48 | -4.29156 | -53.84129 | 32961 ft | 465 kts | 100° |
| 2026-04-27 02:49 | -4.30386 | -53.77764 | 32967 ft | 465 kts | 100° |
| 2026-04-27 02:49 | -4.31617 | -53.71391 | 32968 ft | 466 kts | 100° |
| 2026-04-27 02:50 | -4.32847 | -53.65021 | 32967 ft | 466 kts | 100° |
| 2026-04-27 02:50 | -4.34078 | -53.58644 | 32965 ft | 466 kts | 100° |
| 2026-04-27 02:51 | -4.35307 | -53.52270 | 32966 ft | 466 kts | 100° |
| 2026-04-27 02:51 | -4.36536 | -53.45893 | 32964 ft | 466 kts | 100° |
| 2026-04-27 02:52 | -4.37765 | -53.39515 | 32963 ft | 466 kts | 100° |
| 2026-04-27 02:52 | -4.38994 | -53.33136 | 32968 ft | 467 kts | 100° |
| 2026-04-27 02:53 | -4.40223 | -53.26752 | 32970 ft | 467 kts | 100° |
| 2026-04-27 02:53 | -4.41451 | -53.20370 | 32973 ft | 466 kts | 100° |
| 2026-04-27 02:54 | -4.42680 | -53.13982 | 32974 ft | 467 kts | 100° |
| 2026-04-27 02:54 | -4.43907 | -53.07597 | 32974 ft | 467 kts | 100° |
| 2026-04-27 02:55 | -4.45136 | -53.01204 | 32970 ft | 467 kts | 100° |
| 2026-04-27 02:55 | -4.46362 | -52.94817 | 32971 ft | 467 kts | 100° |
| 2026-04-27 02:56 | -4.47588 | -52.88428 | 32973 ft | 467 kts | 100° |
| 2026-04-27 02:56 | -4.48815 | -52.82034 | 32972 ft | 468 kts | 100° |
| 2026-04-27 02:57 | -4.50044 | -52.75629 | 32975 ft | 468 kts | 100° |
| 2026-04-27 02:57 | -4.51271 | -52.69227 | 32973 ft | 468 kts | 100° |
| 2026-04-27 02:58 | -4.52499 | -52.62817 | 32973 ft | 468 kts | 100° |
| 2026-04-27 02:58 | -4.53728 | -52.56402 | 32975 ft | 469 kts | 100° |
| 2026-04-27 02:59 | -4.54749 | -52.51065 | 32972 ft | 469 kts | 100° |
| 2026-04-27 02:59 | -4.56177 | -52.43602 | 32971 ft | 469 kts | 100° |
| 2026-04-27 03:00 | -4.57406 | -52.37174 | 32972 ft | 470 kts | 100° |
| 2026-04-27 03:00 | -4.58428 | -52.31829 | 32975 ft | 470 kts | 100° |
| 2026-04-27 03:01 | -4.59864 | -52.24314 | 32974 ft | 470 kts | 100° |
| 2026-04-27 03:01 | -4.60884 | -52.18968 | 32972 ft | 470 kts | 99° |
| 2026-04-27 03:02 | -4.62111 | -52.12539 | 32982 ft | 469 kts | 99° |
| 2026-04-27 03:02 | -4.63336 | -52.06115 | 32979 ft | 470 kts | 99° |
| 2026-04-27 03:03 | -4.65177 | -51.96462 | 32974 ft | 470 kts | 100° |
| 2026-04-27 03:04 | -4.66403 | -51.90023 | 32972 ft | 471 kts | 99° |
| 2026-04-27 03:04 | -4.67629 | -51.83584 | 32970 ft | 471 kts | 99° |
| 2026-04-27 03:05 | -4.68857 | -51.77134 | 32967 ft | 471 kts | 100° |
| 2026-04-27 03:05 | -4.70084 | -51.70684 | 32968 ft | 471 kts | 100° |
| 2026-04-27 03:06 | -4.71310 | -51.64233 | 32966 ft | 472 kts | 100° |
| 2026-04-27 03:06 | -4.72538 | -51.57773 | 32966 ft | 471 kts | 100° |
| 2026-04-27 03:07 | -4.73764 | -51.51316 | 32962 ft | 472 kts | 100° |
| 2026-04-27 03:07 | -4.74982 | -51.44899 | 32961 ft | 472 kts | 100° |
| 2026-04-27 03:08 | -4.76208 | -51.38436 | 32963 ft | 472 kts | 100° |
| 2026-04-27 03:08 | -4.77434 | -51.31972 | 32962 ft | 472 kts | 100° |
| 2026-04-27 03:09 | -4.78659 | -51.25509 | 32963 ft | 472 kts | 100° |
| 2026-04-27 03:09 | -4.79883 | -51.19044 | 32960 ft | 472 kts | 100° |
| 2026-04-27 03:10 | -4.81106 | -51.12584 | 32961 ft | 472 kts | 100° |
| 2026-04-27 03:10 | -4.82330 | -51.06119 | 32960 ft | 472 kts | 100° |
| 2026-04-27 03:11 | -4.83551 | -50.99660 | 32964 ft | 472 kts | 100° |
| 2026-04-27 03:11 | -4.84772 | -50.93201 | 32961 ft | 472 kts | 100° |
| 2026-04-27 03:12 | -4.85993 | -50.86740 | 32962 ft | 472 kts | 100° |
| 2026-04-27 03:12 | -4.87212 | -50.80280 | 32964 ft | 471 kts | 100° |
| 2026-04-27 03:13 | -4.88431 | -50.73819 | 32959 ft | 471 kts | 100° |
| 2026-04-27 03:13 | -4.89650 | -50.67357 | 32957 ft | 471 kts | 100° |
| 2026-04-27 03:14 | -4.90867 | -50.60898 | 32963 ft | 471 kts | 100° |
| 2026-04-27 03:14 | -4.92084 | -50.54443 | 32958 ft | 471 kts | 100° |
| 2026-04-27 03:15 | -4.93291 | -50.48033 | 32961 ft | 471 kts | 100° |
| 2026-04-27 03:15 | -4.94505 | -50.41581 | 32957 ft | 471 kts | 100° |
| 2026-04-27 03:16 | -4.95719 | -50.35132 | 32959 ft | 470 kts | 100° |
| 2026-04-27 03:16 | -4.96930 | -50.28687 | 32960 ft | 470 kts | 100° |
| 2026-04-27 03:17 | -4.98140 | -50.22244 | 32964 ft | 470 kts | 100° |
| 2026-04-27 03:17 | -4.99349 | -50.15807 | 32961 ft | 470 kts | 100° |
| 2026-04-27 03:18 | -5.00557 | -50.09371 | 32958 ft | 469 kts | 100° |
| 2026-04-27 03:18 | -5.01764 | -50.02940 | 32954 ft | 469 kts | 100° |
| 2026-04-27 03:19 | -5.02970 | -49.96507 | 32961 ft | 469 kts | 100° |
| 2026-04-27 03:19 | -5.04174 | -49.90079 | 32964 ft | 469 kts | 100° |
| 2026-04-27 03:20 | -5.05377 | -49.83649 | 32957 ft | 469 kts | 100° |
| 2026-04-27 03:20 | -5.06581 | -49.77225 | 32956 ft | 469 kts | 100° |
| 2026-04-27 03:21 | -5.07782 | -49.70800 | 32957 ft | 469 kts | 100° |
| 2026-04-27 03:21 | -5.08983 | -49.64377 | 32955 ft | 468 kts | 100° |
| 2026-04-27 03:22 | -5.10182 | -49.57955 | 32954 ft | 468 kts | 100° |
| 2026-04-27 03:22 | -5.11380 | -49.51539 | 32948 ft | 468 kts | 100° |
| 2026-04-27 03:23 | -5.12578 | -49.45117 | 32951 ft | 469 kts | 100° |
| 2026-04-27 03:23 | -5.13778 | -49.38693 | 32956 ft | 468 kts | 100° |
| 2026-04-27 03:24 | -5.14975 | -49.32273 | 32955 ft | 468 kts | 100° |
| 2026-04-27 03:24 | -5.16171 | -49.25852 | 32958 ft | 469 kts | 100° |
| 2026-04-27 03:25 | -5.17369 | -49.19416 | 32960 ft | 469 kts | 100° |
| 2026-04-27 03:25 | -5.18566 | -49.12979 | 32960 ft | 469 kts | 100° |
| 2026-04-27 03:26 | -5.19762 | -49.06550 | 32963 ft | 469 kts | 100° |
| 2026-04-27 03:26 | -5.20961 | -49.00102 | 32958 ft | 470 kts | 100° |
| 2026-04-27 03:27 | -5.22157 | -48.93662 | 32956 ft | 470 kts | 100° |
| 2026-04-27 03:27 | -5.23353 | -48.87220 | 32953 ft | 470 kts | 100° |
| 2026-04-27 03:28 | -5.24540 | -48.80816 | 32946 ft | 470 kts | 100° |
| 2026-04-27 03:28 | -5.25736 | -48.74367 | 32946 ft | 470 kts | 100° |
| 2026-04-27 03:29 | -5.26931 | -48.67921 | 32943 ft | 470 kts | 100° |
| 2026-04-27 03:29 | -5.28133 | -48.61428 | 32942 ft | 470 kts | 100° |
| 2026-04-27 03:30 | -5.29326 | -48.54983 | 32949 ft | 470 kts | 100° |
| 2026-04-27 03:30 | -5.30516 | -48.48550 | 32946 ft | 470 kts | 100° |
| 2026-04-27 03:31 | -5.31705 | -48.42120 | 32947 ft | 470 kts | 100° |
| 2026-04-27 03:31 | -5.32898 | -48.35666 | 32944 ft | 470 kts | 100° |
| 2026-04-27 03:32 | -5.34089 | -48.29211 | 32943 ft | 471 kts | 100° |
| 2026-04-27 03:32 | -5.35281 | -48.22752 | 32948 ft | 471 kts | 100° |
| 2026-04-27 03:33 | -5.36472 | -48.16295 | 32945 ft | 471 kts | 100° |
| 2026-04-27 03:33 | -5.37662 | -48.09838 | 32948 ft | 471 kts | 100° |
| 2026-04-27 03:34 | -5.38853 | -48.03376 | 32948 ft | 471 kts | 100° |
| 2026-04-27 03:34 | -5.40043 | -47.96912 | 32948 ft | 471 kts | 100° |
| 2026-04-27 03:35 | -5.41231 | -47.90458 | 32951 ft | 471 kts | 100° |
| 2026-04-27 03:35 | -5.42419 | -47.83996 | 32949 ft | 470 kts | 100° |
| 2026-04-27 03:36 | -5.43604 | -47.77545 | 32952 ft | 470 kts | 100° |
| 2026-04-27 03:36 | -5.44777 | -47.71163 | 32952 ft | 470 kts | 100° |
| 2026-04-27 03:37 | -5.45962 | -47.64707 | 32954 ft | 470 kts | 100° |
| 2026-04-27 03:37 | -5.47146 | -47.58252 | 32954 ft | 470 kts | 100° |
| 2026-04-27 03:38 | -5.48329 | -47.51798 | 32958 ft | 470 kts | 100° |
| 2026-04-27 03:38 | -5.49511 | -47.45342 | 32955 ft | 470 kts | 100° |
| 2026-04-27 03:39 | -5.50685 | -47.38930 | 32955 ft | 470 kts | 100° |
| 2026-04-27 03:39 | -5.51866 | -47.32474 | 32958 ft | 470 kts | 100° |
| 2026-04-27 03:40 | -5.53046 | -47.26023 | 32961 ft | 470 kts | 100° |
| 2026-04-27 03:40 | -5.54225 | -47.19574 | 32956 ft | 470 kts | 100° |
| 2026-04-27 03:41 | -5.55403 | -47.13122 | 32960 ft | 470 kts | 100° |
| 2026-04-27 03:41 | -5.56580 | -47.06676 | 32960 ft | 469 kts | 100° |
| 2026-04-27 03:42 | -5.57754 | -47.00236 | 32964 ft | 469 kts | 100° |
| 2026-04-27 03:42 | -5.58929 | -46.93792 | 32964 ft | 469 kts | 100° |
| 2026-04-27 03:43 | -5.60100 | -46.87360 | 32964 ft | 469 kts | 100° |
| 2026-04-27 03:43 | -5.61272 | -46.80919 | 32966 ft | 469 kts | 100° |
| 2026-04-27 03:44 | -5.62442 | -46.74489 | 32965 ft | 468 kts | 100° |
| 2026-04-27 03:44 | -5.63612 | -46.68055 | 32966 ft | 468 kts | 100° |
| 2026-04-27 03:45 | -5.64781 | -46.61620 | 32963 ft | 468 kts | 100° |
| 2026-04-27 03:45 | -5.65950 | -46.55185 | 32963 ft | 469 kts | 100° |
| 2026-04-27 03:46 | -5.67117 | -46.48749 | 32959 ft | 469 kts | 100° |
| 2026-04-27 03:46 | -5.68285 | -46.42311 | 32961 ft | 468 kts | 100° |
| 2026-04-27 03:47 | -5.69450 | -46.35875 | 32959 ft | 468 kts | 100° |
| 2026-04-27 03:47 | -5.70607 | -46.29489 | 32965 ft | 468 kts | 100° |
| 2026-04-27 03:48 | -5.71770 | -46.23060 | 32961 ft | 468 kts | 100° |
| 2026-04-27 03:48 | -5.72931 | -46.16642 | 32962 ft | 467 kts | 100° |
| 2026-04-27 03:49 | -5.73903 | -46.11264 | 32959 ft | 467 kts | 99° |
| 2026-04-27 03:49 | -5.75055 | -46.04887 | 32959 ft | 467 kts | 100° |
| 2026-04-27 03:50 | -5.76211 | -45.98482 | 32964 ft | 466 kts | 99° |
| 2026-04-27 03:50 | -5.77368 | -45.92071 | 32962 ft | 466 kts | 99° |
| 2026-04-27 03:51 | -5.78523 | -45.85667 | 32959 ft | 466 kts | 99° |
| 2026-04-27 03:51 | -5.79677 | -45.79267 | 32964 ft | 466 kts | 99° |
| 2026-04-27 03:52 | -5.80829 | -45.72867 | 32959 ft | 466 kts | 100° |
| 2026-04-27 03:52 | -5.81980 | -45.66469 | 32961 ft | 465 kts | 99° |
| 2026-04-27 03:53 | -5.83129 | -45.60076 | 32962 ft | 465 kts | 99° |
| 2026-04-27 03:53 | -5.84279 | -45.53680 | 32960 ft | 465 kts | 100° |
| 2026-04-27 03:54 | -5.85427 | -45.47288 | 32962 ft | 465 kts | 100° |
| 2026-04-27 03:54 | -5.86574 | -45.40897 | 32965 ft | 465 kts | 100° |
| 2026-04-27 03:55 | -5.87720 | -45.34501 | 32957 ft | 465 kts | 100° |
| 2026-04-27 03:55 | -5.88865 | -45.28109 | 32959 ft | 465 kts | 100° |
| 2026-04-27 03:56 | -5.90010 | -45.21720 | 32962 ft | 465 kts | 100° |
| 2026-04-27 03:56 | -5.91154 | -45.15325 | 32962 ft | 465 kts | 100° |
| 2026-04-27 03:57 | -5.92290 | -45.08977 | 32960 ft | 465 kts | 100° |
| 2026-04-27 03:57 | -5.93431 | -45.02589 | 32963 ft | 465 kts | 100° |
| 2026-04-27 03:58 | -5.94573 | -44.96199 | 32962 ft | 465 kts | 100° |
| 2026-04-27 03:58 | -5.95713 | -44.89811 | 32962 ft | 465 kts | 99° |
| 2026-04-27 03:59 | -5.96853 | -44.83422 | 32965 ft | 465 kts | 99° |
| 2026-04-27 03:59 | -5.97992 | -44.77034 | 32965 ft | 464 kts | 99° |
| 2026-04-27 04:00 | -5.99129 | -44.70644 | 32964 ft | 464 kts | 99° |
| 2026-04-27 04:00 | -6.00266 | -44.64256 | 32967 ft | 464 kts | 99° |
| 2026-04-27 04:01 | -6.01402 | -44.57870 | 32962 ft | 464 kts | 99° |
| 2026-04-27 04:01 | -6.02535 | -44.51494 | 32963 ft | 464 kts | 99° |
| 2026-04-27 04:02 | -6.03683 | -44.45113 | 32968 ft | 464 kts | 100° |
| 2026-04-27 04:02 | -6.04817 | -44.38734 | 32966 ft | 464 kts | 99° |
| 2026-04-27 04:03 | -6.05937 | -44.32348 | 32964 ft | 464 kts | 99° |
| 2026-04-27 04:03 | -6.07068 | -44.25963 | 32965 ft | 464 kts | 99° |
| 2026-04-27 04:04 | -6.08200 | -44.19574 | 32964 ft | 465 kts | 99° |
| 2026-04-27 04:04 | -6.09331 | -44.13181 | 32965 ft | 464 kts | 99° |
| 2026-04-27 04:05 | -6.10453 | -44.06835 | 32962 ft | 465 kts | 99° |
| 2026-04-27 04:05 | -6.11581 | -44.00448 | 32963 ft | 464 kts | 99° |
| 2026-04-27 04:06 | -6.12710 | -43.94058 | 32970 ft | 464 kts | 99° |
| 2026-04-27 04:06 | -6.13837 | -43.87669 | 32965 ft | 464 kts | 99° |
| 2026-04-27 04:07 | -6.15522 | -43.78101 | 32961 ft | 463 kts | 99° |
| 2026-04-27 04:07 | -6.16646 | -43.71730 | 32961 ft | 463 kts | 99° |
| 2026-04-27 04:08 | -6.17767 | -43.65368 | 32960 ft | 462 kts | 99° |
| 2026-04-27 04:08 | -6.18886 | -43.59007 | 32961 ft | 461 kts | 99° |
| 2026-04-27 04:09 | -6.20001 | -43.52659 | 32959 ft | 461 kts | 99° |
| 2026-04-27 04:09 | -6.21118 | -43.46321 | 32959 ft | 461 kts | 99° |
| 2026-04-27 04:10 | -6.22233 | -43.39979 | 32960 ft | 461 kts | 99° |
| 2026-04-27 04:10 | -6.23347 | -43.33633 | 32961 ft | 461 kts | 99° |
| 2026-04-27 04:11 | -6.24462 | -43.27283 | 32953 ft | 461 kts | 99° |
| 2026-04-27 04:11 | -6.25563 | -43.20974 | 32957 ft | 462 kts | 99° |
| 2026-04-27 04:12 | -6.26673 | -43.14611 | 32959 ft | 462 kts | 99° |
| 2026-04-27 04:12 | -6.27786 | -43.08245 | 32952 ft | 463 kts | 99° |
| 2026-04-27 04:13 | -6.28901 | -43.01871 | 32953 ft | 463 kts | 99° |
| 2026-04-27 04:13 | -6.30018 | -42.95480 | 32953 ft | 464 kts | 99° |
| 2026-04-27 04:14 | -6.31134 | -42.89084 | 32947 ft | 465 kts | 99° |
| 2026-04-27 04:14 | -6.32254 | -42.82669 | 32952 ft | 466 kts | 99° |
| 2026-04-27 04:15 | -6.33377 | -42.76252 | 32946 ft | 467 kts | 99° |
| 2026-04-27 04:15 | -6.34498 | -42.69822 | 32950 ft | 467 kts | 99° |
| 2026-04-27 04:16 | -6.35621 | -42.63389 | 32952 ft | 467 kts | 99° |
| 2026-04-27 04:16 | -6.36739 | -42.56952 | 32957 ft | 468 kts | 99° |
| 2026-04-27 04:17 | -6.37858 | -42.50507 | 32954 ft | 468 kts | 99° |
| 2026-04-27 04:17 | -6.38976 | -42.44064 | 32958 ft | 468 kts | 99° |
| 2026-04-27 04:18 | -6.40097 | -42.37625 | 32960 ft | 468 kts | 99° |
| 2026-04-27 04:18 | -6.41212 | -42.31228 | 32955 ft | 467 kts | 99° |
| 2026-04-27 04:19 | -6.42327 | -42.24793 | 32962 ft | 467 kts | 99° |
| 2026-04-27 04:19 | -6.43440 | -42.18356 | 32962 ft | 467 kts | 99° |
| 2026-04-27 04:20 | -6.44554 | -42.11918 | 32966 ft | 467 kts | 99° |
| 2026-04-27 04:20 | -6.45671 | -42.05487 | 32962 ft | 467 kts | 99° |
| 2026-04-27 04:21 | -6.46776 | -41.99050 | 32964 ft | 467 kts | 99° |
| 2026-04-27 04:21 | -6.47892 | -41.92615 | 32962 ft | 467 kts | 99° |
| 2026-04-27 04:22 | -6.49001 | -41.86178 | 32962 ft | 467 kts | 99° |
| 2026-04-27 04:22 | -6.50108 | -41.79740 | 32971 ft | 467 kts | 99° |
| 2026-04-27 04:23 | -6.51219 | -41.73311 | 32971 ft | 467 kts | 99° |
| 2026-04-27 04:23 | -6.52325 | -41.66881 | 32976 ft | 467 kts | 99° |
| 2026-04-27 04:24 | -6.53432 | -41.60452 | 32972 ft | 466 kts | 99° |
| 2026-04-27 04:24 | -6.54536 | -41.54031 | 32978 ft | 466 kts | 99° |
| 2026-04-27 04:25 | -6.55635 | -41.47607 | 32978 ft | 466 kts | 98° |
| 2026-04-27 04:25 | -6.56733 | -41.41193 | 32980 ft | 466 kts | 98° |
| 2026-04-27 04:26 | -6.57823 | -41.34818 | 32980 ft | 465 kts | 98° |
| 2026-04-27 04:26 | -6.58916 | -41.28412 | 32979 ft | 465 kts | 98° |
| 2026-04-27 04:27 | -6.60014 | -41.22012 | 32977 ft | 464 kts | 99° |
| 2026-04-27 04:27 | -6.61107 | -41.15614 | 32985 ft | 464 kts | 98° |
| 2026-04-27 04:28 | -6.62301 | -41.09236 | 32990 ft | 464 kts | 101° |
| 2026-04-27 04:28 | -6.63679 | -41.02894 | 32987 ft | 464 kts | 101° |
| 2026-04-27 04:29 | -6.65023 | -40.96552 | 32988 ft | 464 kts | 101° |
| 2026-04-27 04:29 | -6.66357 | -40.90205 | 32994 ft | 464 kts | 101° |
| 2026-04-27 04:30 | -6.67689 | -40.83849 | 32990 ft | 464 kts | 101° |
| 2026-04-27 04:30 | -6.69020 | -40.77493 | 32990 ft | 465 kts | 100° |
| 2026-04-27 04:31 | -6.70350 | -40.71138 | 32987 ft | 465 kts | 100° |
| 2026-04-27 04:31 | -6.71680 | -40.64781 | 32983 ft | 465 kts | 100° |
| 2026-04-27 04:32 | -6.73010 | -40.58415 | 32990 ft | 465 kts | 100° |
| 2026-04-27 04:32 | -6.74340 | -40.52055 | 32986 ft | 465 kts | 100° |
| 2026-04-27 04:33 | -6.75670 | -40.45685 | 32982 ft | 465 kts | 100° |
| 2026-04-27 04:33 | -6.76997 | -40.39319 | 32987 ft | 465 kts | 100° |
| 2026-04-27 04:34 | -6.78327 | -40.32946 | 32986 ft | 465 kts | 100° |
| 2026-04-27 04:34 | -6.79646 | -40.26618 | 32987 ft | 466 kts | 100° |
| 2026-04-27 04:35 | -6.80974 | -40.20242 | 32991 ft | 466 kts | 100° |
| 2026-04-27 04:35 | -6.82301 | -40.13861 | 32993 ft | 465 kts | 100° |
| 2026-04-27 04:36 | -6.83626 | -40.07486 | 32989 ft | 466 kts | 100° |
| 2026-04-27 04:36 | -6.84951 | -40.01111 | 32985 ft | 466 kts | 100° |
| 2026-04-27 04:37 | -6.86276 | -39.94732 | 32989 ft | 466 kts | 100° |
| 2026-04-27 04:37 | -6.87599 | -39.88356 | 32987 ft | 466 kts | 100° |
| 2026-04-27 04:38 | -6.88922 | -39.81979 | 32988 ft | 465 kts | 100° |
| 2026-04-27 04:38 | -6.90242 | -39.75605 | 32977 ft | 466 kts | 100° |
| 2026-04-27 04:39 | -6.91563 | -39.69228 | 32975 ft | 465 kts | 100° |
| 2026-04-27 04:39 | -6.92659 | -39.63930 | 32979 ft | 465 kts | 100° |
| 2026-04-27 04:40 | -6.93977 | -39.57552 | 32981 ft | 465 kts | 100° |
| 2026-04-27 04:40 | -6.95294 | -39.51182 | 32978 ft | 465 kts | 100° |
| 2026-04-27 04:41 | -6.96611 | -39.44808 | 32993 ft | 465 kts | 100° |
| 2026-04-27 04:41 | -6.97925 | -39.38441 | 33001 ft | 465 kts | 100° |
| 2026-04-27 04:42 | -6.99239 | -39.32066 | 33004 ft | 465 kts | 100° |
| 2026-04-27 04:42 | -7.00552 | -39.25693 | 33003 ft | 465 kts | 100° |
| 2026-04-27 04:43 | -7.01865 | -39.19318 | 33001 ft | 465 kts | 100° |
| 2026-04-27 04:43 | -7.03177 | -39.12948 | 33002 ft | 465 kts | 100° |
| 2026-04-27 04:44 | -7.04486 | -39.06576 | 32993 ft | 465 kts | 100° |
| 2026-04-27 04:44 | -7.05797 | -39.00202 | 32984 ft | 465 kts | 100° |
| 2026-04-27 04:45 | -7.07106 | -38.93822 | 32964 ft | 465 kts | 100° |
| 2026-04-27 04:45 | -7.08414 | -38.87445 | 32971 ft | 465 kts | 100° |
| 2026-04-27 04:46 | -7.09723 | -38.81061 | 32966 ft | 465 kts | 100° |
| 2026-04-27 04:46 | -7.11031 | -38.74678 | 32963 ft | 466 kts | 100° |
| 2026-04-27 04:47 | -7.12337 | -38.68296 | 32971 ft | 466 kts | 100° |
| 2026-04-27 04:47 | -7.13645 | -38.61908 | 32973 ft | 466 kts | 100° |
| 2026-04-27 04:48 | -7.14950 | -38.55523 | 32969 ft | 466 kts | 100° |
| 2026-04-27 04:48 | -7.16252 | -38.49154 | 32965 ft | 466 kts | 100° |
| 2026-04-27 04:49 | -7.17548 | -38.42802 | 32972 ft | 466 kts | 100° |
| 2026-04-27 04:49 | -7.18849 | -38.36428 | 32966 ft | 466 kts | 100° |
| 2026-04-27 04:50 | -7.20164 | -38.29981 | 32969 ft | 466 kts | 100° |
| 2026-04-27 04:50 | -7.21466 | -38.23588 | 32964 ft | 466 kts | 100° |
| 2026-04-27 04:51 | -7.22758 | -38.17243 | 32973 ft | 466 kts | 100° |
| 2026-04-27 04:51 | -7.24056 | -38.10853 | 32971 ft | 466 kts | 100° |
| 2026-04-27 04:52 | -7.25366 | -38.04416 | 32967 ft | 466 kts | 100° |
| 2026-04-27 04:52 | -7.26655 | -37.98066 | 32969 ft | 466 kts | 100° |
| 2026-04-27 04:53 | -7.27953 | -37.91670 | 32969 ft | 466 kts | 100° |
| 2026-04-27 04:53 | -7.29251 | -37.85270 | 32975 ft | 466 kts | 100° |
| 2026-04-27 04:54 | -7.30548 | -37.78870 | 32971 ft | 466 kts | 100° |
| 2026-04-27 04:54 | -7.31845 | -37.72462 | 32974 ft | 467 kts | 100° |
| 2026-04-27 04:55 | -7.33141 | -37.66057 | 32981 ft | 467 kts | 100° |
| 2026-04-27 04:55 | -7.34437 | -37.59645 | 32986 ft | 467 kts | 100° |
| 2026-04-27 04:56 | -7.35733 | -37.53235 | 32985 ft | 467 kts | 100° |
| 2026-04-27 04:56 | -7.37027 | -37.46821 | 32995 ft | 467 kts | 100° |
| 2026-04-27 04:57 | -7.38321 | -37.40408 | 32996 ft | 467 kts | 100° |
| 2026-04-27 04:57 | -7.39614 | -37.33991 | 32997 ft | 467 kts | 100° |
| 2026-04-27 04:58 | -7.40907 | -37.27572 | 32995 ft | 468 kts | 100° |
| 2026-04-27 04:58 | -7.42199 | -37.21149 | 32994 ft | 468 kts | 100° |
| 2026-04-27 04:59 | -7.43491 | -37.14725 | 33000 ft | 468 kts | 100° |
| 2026-04-27 04:59 | -7.44782 | -37.08302 | 33001 ft | 468 kts | 100° |
| 2026-04-27 05:00 | -7.46073 | -37.01874 | 32998 ft | 468 kts | 100° |
| 2026-04-27 05:00 | -7.47364 | -36.95440 | 33005 ft | 468 kts | 100° |
| 2026-04-27 05:01 | -7.48652 | -36.89015 | 33000 ft | 468 kts | 100° |
| 2026-04-27 05:01 | -7.49940 | -36.82584 | 32996 ft | 468 kts | 100° |
| 2026-04-27 05:02 | -7.51229 | -36.76150 | 33010 ft | 468 kts | 100° |
| 2026-04-27 05:03 | -7.53158 | -36.66498 | 32995 ft | 469 kts | 100° |
| 2026-04-27 05:03 | -7.54443 | -36.60070 | 32996 ft | 469 kts | 100° |
| 2026-04-27 05:04 | -7.55729 | -36.53625 | 32998 ft | 469 kts | 100° |
| 2026-04-27 05:04 | -7.57012 | -36.47191 | 32992 ft | 469 kts | 100° |
| 2026-04-27 05:05 | -7.58297 | -36.40748 | 32990 ft | 469 kts | 100° |
| 2026-04-27 05:05 | -7.59579 | -36.34311 | 32993 ft | 469 kts | 100° |
| 2026-04-27 05:06 | -7.60860 | -36.27864 | 32994 ft | 469 kts | 100° |
| 2026-04-27 05:06 | -7.62133 | -36.21463 | 32995 ft | 469 kts | 100° |
| 2026-04-27 05:07 | -7.63412 | -36.15026 | 32992 ft | 469 kts | 100° |
| 2026-04-27 05:07 | -7.64691 | -36.08583 | 32996 ft | 468 kts | 100° |
| 2026-04-27 05:08 | -7.65968 | -36.02143 | 33001 ft | 469 kts | 100° |
| 2026-04-27 05:08 | -7.67244 | -35.95700 | 32991 ft | 468 kts | 101° |
| 2026-04-27 05:09 | -7.68519 | -35.89266 | 32989 ft | 469 kts | 101° |
| 2026-04-27 05:09 | -7.69794 | -35.82817 | 32984 ft | 469 kts | 100° |
| 2026-04-27 05:10 | -7.71070 | -35.76363 | 32995 ft | 469 kts | 101° |
| 2026-04-27 05:10 | -7.72345 | -35.69914 | 32983 ft | 469 kts | 100° |
| 2026-04-27 05:11 | -7.73617 | -35.63459 | 32993 ft | 469 kts | 101° |
| 2026-04-27 05:11 | -7.74890 | -35.57007 | 32980 ft | 469 kts | 101° |
| 2026-04-27 05:12 | -7.76166 | -35.50542 | 32977 ft | 470 kts | 101° |
| 2026-04-27 05:12 | -7.77438 | -35.44086 | 32980 ft | 470 kts | 101° |
| 2026-04-27 05:13 | -7.78707 | -35.37627 | 32969 ft | 470 kts | 100° |
| 2026-04-27 05:13 | -7.79974 | -35.31172 | 32975 ft | 469 kts | 101° |
| 2026-04-27 05:14 | -7.81244 | -35.24715 | 32970 ft | 469 kts | 101° |
| 2026-04-27 05:14 | -7.81876 | -35.21497 | 32941 ft | 458 kts | 101° |
| 2026-04-27 05:14 | -7.82477 | -35.18433 | 32303 ft | 437 kts | 101° |
| 2026-04-27 05:14 | -7.82991 | -35.15817 | 31693 ft | 421 kts | 101° |
| 2026-04-27 05:15 | -7.83541 | -35.12985 | 31063 ft | 404 kts | 100° |
| 2026-04-27 05:15 | -7.84113 | -35.10258 | 30433 ft | 389 kts | 102° |
| 2026-04-27 05:15 | -7.84651 | -35.07633 | 29772 ft | 377 kts | 101° |
| 2026-04-27 05:15 | -7.85159 | -35.05065 | 29042 ft | 373 kts | 106° |
| 2026-04-27 05:16 | -7.86243 | -35.02665 | 28367 ft | 385 kts | 124° |
| 2026-04-27 05:16 | -7.88149 | -35.00735 | 27700 ft | 394 kts | 144° |
| 2026-04-27 05:16 | -7.90655 | -34.99581 | 27027 ft | 396 kts | 158° |
| 2026-04-27 05:16 | -7.93282 | -34.98788 | 26376 ft | 394 kts | 165° |
| 2026-04-27 05:17 | -7.96000 | -34.98433 | 25443 ft | 395 kts | 175° |
| 2026-04-27 05:17 | -7.98733 | -34.98602 | 24527 ft | 394 kts | 187° |
| 2026-04-27 05:17 | -8.01295 | -34.99560 | 23647 ft | 396 kts | 207° |
| 2026-04-27 05:17 | -8.03390 | -35.01348 | 22640 ft | 397 kts | 229° |
| 2026-04-27 05:18 | -8.04783 | -35.03731 | 21649 ft | 395 kts | 246° |
| 2026-04-27 05:18 | -8.05771 | -35.06294 | 20693 ft | 389 kts | 249° |
| 2026-04-27 05:18 | -8.06707 | -35.08839 | 19757 ft | 384 kts | 249° |
| 2026-04-27 05:18 | -8.07632 | -35.11347 | 18852 ft | 379 kts | 249° |
| 2026-04-27 05:19 | -8.08548 | -35.13814 | 17931 ft | 373 kts | 249° |
| 2026-04-27 05:19 | -8.09450 | -35.16246 | 16918 ft | 367 kts | 250° |
| 2026-04-27 05:19 | -8.09920 | -35.18751 | 15941 ft | 363 kts | 271° |
| 2026-04-27 05:19 | -8.09476 | -35.21217 | 15005 ft | 357 kts | 292° |
| 2026-04-27 05:20 | -8.08176 | -35.23312 | 14097 ft | 351 kts | 315° |
| 2026-04-27 05:20 | -8.06281 | -35.24822 | 13127 ft | 345 kts | 328° |
| 2026-04-27 05:20 | -8.04269 | -35.26121 | 12149 ft | 341 kts | 329° |
| 2026-04-27 05:20 | -8.02276 | -35.27405 | 11160 ft | 337 kts | 328° |
| 2026-04-27 05:21 | -8.00280 | -35.28695 | 10287 ft | 332 kts | 329° |
| 2026-04-27 05:21 | -7.98415 | -35.29884 | 9958 ft | 311 kts | 329° |
| 2026-04-27 05:21 | -7.96592 | -35.31036 | 9160 ft | 308 kts | 329° |
| 2026-04-27 05:21 | -7.94808 | -35.32148 | 8534 ft | 299 kts | 332° |
| 2026-04-27 05:22 | -7.92963 | -35.32948 | 8234 ft | 280 kts | 342° |
| 2026-04-27 05:22 | -7.91116 | -35.33434 | 7998 ft | 279 kts | 354° |
| 2026-04-27 05:22 | -7.89159 | -35.33414 | 7807 ft | 284 kts | 11° |
| 2026-04-27 05:22 | -7.87301 | -35.32770 | 7544 ft | 283 kts | 35° |
| 2026-04-27 05:23 | -7.86044 | -35.31305 | 7289 ft | 278 kts | 69° |
| 2026-04-27 05:23 | -7.85773 | -35.29410 | 7085 ft | 275 kts | 98° |
| 2026-04-27 05:23 | -7.86081 | -35.28151 | 6936 ft | 274 kts | 109° |
| 2026-04-27 05:23 | -7.86734 | -35.26348 | 6685 ft | 274 kts | 110° |
| 2026-04-27 05:24 | -7.87374 | -35.24547 | 6439 ft | 272 kts | 109° |
| 2026-04-27 05:24 | -7.88173 | -35.22162 | 6118 ft | 270 kts | 109° |
| 2026-04-27 05:24 | -7.88558 | -35.20977 | 5940 ft | 269 kts | 109° |
| 2026-04-27 05:24 | -7.89136 | -35.19189 | 5706 ft | 267 kts | 109° |
| 2026-04-27 05:25 | -7.89707 | -35.17416 | 5456 ft | 265 kts | 109° |
| 2026-04-27 05:25 | -7.90266 | -35.15658 | 5221 ft | 263 kts | 109° |
| 2026-04-27 05:25 | -7.90820 | -35.13903 | 4981 ft | 262 kts | 110° |
| 2026-04-27 05:25 | -7.91395 | -35.12165 | 4742 ft | 260 kts | 109° |
| 2026-04-27 05:26 | -7.91914 | -35.10420 | 4489 ft | 260 kts | 108° |
| 2026-04-27 05:26 | -7.92438 | -35.08677 | 4240 ft | 259 kts | 109° |
| 2026-04-27 05:26 | -7.92952 | -35.06939 | 4000 ft | 258 kts | 108° |
| 2026-04-27 05:26 | -7.93436 | -35.05194 | 3766 ft | 258 kts | 109° |
| 2026-04-27 05:27 | -7.93959 | -35.03467 | 3518 ft | 257 kts | 109° |
| 2026-04-27 05:27 | -7.94465 | -35.01742 | 3286 ft | 256 kts | 109° |
| 2026-04-27 05:27 | -7.94958 | -35.00015 | 3030 ft | 256 kts | 109° |
| 2026-04-27 05:27 | -7.95444 | -34.98285 | 2755 ft | 256 kts | 108° |
| 2026-04-27 05:28 | -7.96002 | -34.96661 | 2727 ft | 228 kts | 124° |
| 2026-04-27 05:28 | -7.97181 | -34.95790 | 2751 ft | 208 kts | 172° |
| 2026-04-27 05:28 | -7.98503 | -34.96116 | 2441 ft | 194 kts | 200° |
| 2026-04-27 05:28 | -7.99716 | -34.96450 | 2300 ft | 167 kts | 184° |
| 2026-04-27 05:29 | -8.00789 | -34.96416 | 2136 ft | 144 kts | 167° |
| 2026-04-27 05:29 | -8.01674 | -34.96053 | 1899 ft | 136 kts | 157° |
| 2026-04-27 05:29 | -8.02520 | -34.95696 | 1676 ft | 126 kts | 160° |
| 2026-04-27 05:29 | -8.03342 | -34.95396 | 1457 ft | 125 kts | 161° |
| 2026-04-27 05:30 | -8.04160 | -34.95108 | 1347 ft | 125 kts | 161° |
| 2026-04-27 05:30 | -8.04998 | -34.94824 | 1251 ft | 128 kts | 162° |
| 2026-04-27 05:30 | -8.05862 | -34.94552 | 1173 ft | 131 kts | 162° |
| 2026-04-27 05:30 | -8.06728 | -34.94251 | 1050 ft | 133 kts | 163° |
| 2026-04-27 05:31 | -8.07613 | -34.93965 | 902 ft | 134 kts | 164° |
| 2026-04-27 05:31 | -8.08511 | -34.93665 | 752 ft | 138 kts | 162° |
| 2026-04-27 05:31 | -8.09428 | -34.93364 | 500 ft | 136 kts | 165° |
| 2026-04-27 05:31 | -8.10323 | -34.93080 | 304 ft | 135 kts | 163° |
| 2026-04-27 05:32 | -8.11228 | -34.92779 | 142 ft | 140 kts | 164° |
| 2026-04-27 05:32 | -8.12133 | -34.92482 | 45 ft | 127 kts | 163° |
| 2026-04-27 05:32 | -8.12845 | -34.92249 | 49 ft | 84 kts | 161° |
| 2026-04-27 05:32 | -8.13176 | -34.92133 | 44 ft | 24 kts | 150° |
| 2026-04-27 05:33 | -8.13298 | -34.92008 | 42 ft | 25 kts | 131° |
| 2026-04-27 05:33 | -8.13288 | -34.91913 | 44 ft | 13 kts | 69° |
| 2026-04-27 05:33 | -8.13275 | -34.91870 | 42 ft | 0 kts | 73° |